Time;durP1;ratioP1;P1;durP2;ratioP2;P2;SDS_P1;SDS_P2;PMS_P1;PMS_P2;Temp;Humidity;BMP_temperature;BMP_pressure;BME280_temperature;BME280_humidity;BME280_pressure;Samples;Min_cycle;Max_cycle;Signal;HPM_P1;HPM_P2
2022/08/06 00:02:40;;;;;;;2.47;1.42;;;;;;;;;;5011070;28;20053;-73
2022/08/06 00:05:11;;;;;;;2.70;1.90;;;;;;;;;;5008451;28;20050;-72
2022/08/06 00:07:51;;;;;;;6.13;2.20;;;;;;;;;;5007418;28;20050;-73
2022/08/06 00:10:21;;;;;;;4.25;2.13;;;;;;;;;;5008639;28;20061;-74
2022/08/06 00:13:00;;;;;;;3.65;2.03;;;;;;;;;;5008376;28;20042;-73
2022/08/06 00:15:33;;;;;;;5.50;3.15;;;;;;;;;;5008701;28;20408;-72
2022/08/06 00:18:23;;;;;;;4.57;2.72;;;;;;;;;;5008163;28;20045;-73
2022/08/06 00:20:53;;;;;;;4.30;3.03;;;;;;;;;;5007658;28;20061;-73
2022/08/06 00:23:23;;;;;;;4.47;3.40;;;;;;;;;;5007191;28;20050;-73
2022/08/06 00:25:53;;;;;;;6.13;3.80;;;;;;;;;;5007767;28;20492;-73
2022/08/06 00:28:25;;;;;;;6.38;3.20;;;;;;;;;;5007344;28;20054;-72
2022/08/06 00:31:04;;;;;;;;;;;;;;;;;;5008350;28;20510;-73
2022/08/06 00:33:41;;;;;;;4.35;1.42;;;;;;;;;;5007845;28;19936;-73
2022/08/06 00:36:26;;;;;;;4.57;2.05;;;;;;;;;;5007604;28;20416;-73
2022/08/06 00:39:00;;;;;;;5.25;2.40;;;;;;;;;;4990373;28;20054;-73
2022/08/06 00:41:38;;;;;;;5.63;2.25;;;;;;;;;;5009201;28;20495;-72
2022/08/06 00:44:14;;;;;;;3.53;2.40;;;;;;;;;;5007714;28;20049;-73
2022/08/06 00:46:59;;;;;;;5.30;2.42;;;;;;;;;;5007810;28;20064;-73
2022/08/06 00:49:33;;;;;;;4.50;2.53;;;;;;;;;;5008014;28;20524;-73
2022/08/06 00:52:17;;;;;;;4.80;1.95;;;;;;;;;;5007488;28;20058;-73
2022/08/06 00:54:54;;;;;;;3.40;1.95;;;;;;;;;;5008142;28;20061;-73
2022/08/06 00:57:24;;;;;;;3.45;2.30;;;;;;;;;;5006337;28;20061;-73
2022/08/06 00:59:58;;;;;;;4.05;2.42;;;;;;;;;;4991133;28;20068;-73
2022/08/06 01:02:29;;;;;;;3.28;1.77;;;;;;;;;;5007653;28;20528;-73
2022/08/06 01:04:59;;;;;;;4.70;1.85;;;;;;;;;;5007577;28;20054;-73
2022/08/06 01:07:49;;;;;;;2.65;1.73;;;;;;;;;;5006489;28;20057;-73
2022/08/06 01:10:22;;;;;;;4.65;2.28;;;;;;;;;;5006120;28;20065;-73
2022/08/06 01:12:59;;;;;;;3.65;2.20;;;;;;;;;;5007268;28;20520;-73
2022/08/06 01:16:08;;;;;;;3.83;2.00;;;;;;;;;;5006454;28;20072;-73
2022/08/06 01:18:47;;;;;;;4.75;2.30;;;;;;;;;;5006563;28;20539;-73
2022/08/06 01:21:41;;;;;;;10.85;3.42;;;;;;;;;;5006823;28;20054;-74
2022/08/06 01:24:56;;;;;;;7.07;2.95;;;;;;;;;;5006792;28;20057;-73
2022/08/06 01:27:42;;;;;;;4.55;2.92;;;;;;;;;;4985484;28;20067;-72
2022/08/06 01:30:18;;;;;;;6.15;3.42;;;;;;;;;;5007398;28;20069;-72
2022/08/06 01:32:59;;;;;;;5.78;2.53;;;;;;;;;;5007500;28;20868;-72
2022/08/06 01:35:41;;;;;;;4.47;2.58;;;;;;;;;;5006425;28;20049;-72
2022/08/06 01:38:30;;;;;;;5.03;2.67;;;;;;;;;;5006703;28;20052;-73
2022/08/06 01:41:11;;;;;;;6.65;3.10;;;;;;;;;;5007372;28;20050;-72
2022/08/06 01:43:42;;;;;;;7.22;3.60;;;;;;;;;;5006485;28;20057;-73
2022/08/06 01:46:35;;;;;;;8.70;3.40;;;;;;;;;;5006449;28;20049;-73
2022/08/06 01:49:13;;;;;;;8.93;5.25;;;;;;;;;;5007166;28;20050;-72
2022/08/06 01:52:00;;;;;;;10.00;4.88;;;;;;;;;;5006358;28;20546;-72
2022/08/06 01:54:47;;;;;;;11.48;4.78;;;;;;;;;;5005728;28;20057;-72
2022/08/06 01:57:22;;;;;;;6.25;3.10;;;;;;;;;;5007267;28;20050;-72
2022/08/06 02:00:14;;;;;;;5.22;3.00;;;;;;;;;;5010782;28;20049;-72
2022/08/06 02:02:45;;;;;;;3.10;2.25;;;;;;;;;;5009783;28;20053;-72
2022/08/06 02:05:21;;;;;;;3.90;2.22;;;;;;;;;;5006727;28;20394;-73
2022/08/06 02:08:01;;;;;;;6.43;2.83;;;;;;;;;;5007067;28;20045;-73
2022/08/06 02:10:53;;;;;;;3.05;2.05;;;;;;;;;;4992337;28;20050;-73
2022/08/06 02:13:26;;;;;;;6.72;2.40;;;;;;;;;;5007152;28;20046;-73
2022/08/06 02:16:12;;;;;;;6.10;2.42;;;;;;;;;;5006812;28;20057;-73
2022/08/06 02:18:46;;;;;;;4.93;2.17;;;;;;;;;;5006517;28;20062;-72
2022/08/06 02:21:21;;;;;;;6.15;2.20;;;;;;;;;;5006417;28;20049;-73
2022/08/06 02:24:05;;;;;;;3.75;2.20;;;;;;;;;;5006352;28;20046;-73
2022/08/06 02:26:39;;;;;;;3.42;1.83;;;;;;;;;;5006051;28;20084;-73
2022/08/06 02:29:16;;;;;;;3.20;2.15;;;;;;;;;;5006482;28;20049;-73
2022/08/06 02:31:47;;;;;;;3.08;1.90;;;;;;;;;;5005577;28;20054;-74
2022/08/06 02:34:20;;;;;;;3.67;1.85;;;;;;;;;;5006809;28;20046;-73
2022/08/06 02:37:15;;;;;;;2.60;1.80;;;;;;;;;;5006534;28;20054;-73
2022/08/06 02:40:16;;;;;;;3.38;1.63;;;;;;;;;;5006628;28;20382;-72
2022/08/06 02:42:58;;;;;;;3.58;1.67;;;;;;;;;;5006410;28;20053;-72
2022/08/06 02:45:38;;;;;;;3.67;1.90;;;;;;;;;;5006416;28;20413;-73
2022/08/06 02:48:35;;;;;;;3.03;1.80;;;;;;;;;;5007088;28;20053;-73
2022/08/06 02:51:17;;;;;;;3.30;2.00;;;;;;;;;;5009723;28;20057;-73
2022/08/06 02:54:19;;;;;;;4.45;1.65;;;;;;;;;;5009991;28;20069;-73
2022/08/06 02:57:00;;;;;;;3.38;1.80;;;;;;;;;;5009716;28;20496;-73
2022/08/06 02:59:35;;;;;;;5.20;1.88;;;;;;;;;;5009822;28;20424;-73
2022/08/06 03:02:09;;;;;;;4.03;1.90;;;;;;;;;;5009979;28;20041;-73
2022/08/06 03:04:45;;;;;;;;;;;;;;;;;;4993243;28;20133;-73
2022/08/06 03:07:28;;;;;;;2.42;1.67;;;;;;;;;;5010072;28;19933;-73
2022/08/06 03:10:01;;;;;;;3.88;1.73;;;;;;;;;;5009772;28;20046;-73
2022/08/06 03:12:42;;;;;;;4.03;2.40;;;;;;;;;;4994149;28;20045;-72
2022/08/06 03:15:17;;;;;;;5.47;2.00;;;;;;;;;;5010013;28;20050;-73
2022/08/06 03:18:08;;;;;;;3.20;1.80;;;;;;;;;;5009443;28;20042;-73
2022/08/06 03:20:40;;;;;;;5.25;2.15;;;;;;;;;;5009479;28;20045;-73
2022/08/06 03:23:12;;;;;;;9.75;2.65;;;;;;;;;;5010281;28;20042;-72
2022/08/06 03:25:45;;;;;;;3.08;2.30;;;;;;;;;;5009350;28;20046;-73
2022/08/06 03:28:17;;;;;;;3.13;2.17;;;;;;;;;;5009036;28;20412;-73
2022/08/06 03:30:52;;;;;;;3.55;2.15;;;;;;;;;;5009347;28;20049;-73
2022/08/06 03:33:24;;;;;;;3.35;2.15;;;;;;;;;;5009023;28;20045;-73
2022/08/06 03:36:14;;;;;;;3.85;1.98;;;;;;;;;;5009257;28;20060;-73
2022/08/06 03:39:01;;;;;;;5.07;2.25;;;;;;;;;;5009152;28;20042;-73
2022/08/06 03:41:37;;;;;;;3.17;2.00;;;;;;;;;;5008269;28;20401;-73
2022/08/06 03:44:27;;;;;;;8.60;2.22;;;;;;;;;;5009076;28;20050;-73
2022/08/06 03:47:06;;;;;;;7.32;2.22;;;;;;;;;;5009558;28;20054;-73
2022/08/06 03:49:50;;;;;;;4.57;2.28;;;;;;;;;;5009240;28;20049;-73
2022/08/06 03:52:26;;;;;;;4.45;2.25;;;;;;;;;;5009122;28;20042;-73
2022/08/06 03:55:01;;;;;;;3.65;2.20;;;;;;;;;;5008910;28;20599;-73
2022/08/06 03:57:40;;;;;;;6.53;2.72;;;;;;;;;;5009075;28;20049;-72
2022/08/06 04:00:23;;;;;;;4.47;2.45;;;;;;;;;;5007656;28;20054;-73
2022/08/06 04:02:58;;;;;;;5.22;2.38;;;;;;;;;;4992200;28;20050;-73
2022/08/06 04:05:33;;;;;;;4.68;2.38;;;;;;;;;;5008900;28;20049;-73
2022/08/06 04:08:11;;;;;;;4.18;2.10;;;;;;;;;;5009595;28;20412;-73
2022/08/06 04:10:47;;;;;;;3.92;2.10;;;;;;;;;;5008475;28;20409;-73
2022/08/06 04:13:27;;;;;;;3.33;2.10;;;;;;;;;;5008527;28;20049;-73
2022/08/06 04:16:18;;;;;;;5.63;2.33;;;;;;;;;;5008396;28;20113;-73
2022/08/06 04:19:05;;;;;;;3.30;2.08;;;;;;;;;;5008538;28;20621;-73
2022/08/06 04:21:40;;;;;;;2.40;1.90;;;;;;;;;;5008025;28;20416;-73
2022/08/06 04:24:31;;;;;;;4.75;2.63;;;;;;;;;;5007358;28;20085;-73
2022/08/06 04:27:05;;;;;;;3.78;2.15;;;;;;;;;;5006938;28;20046;-73
2022/08/06 04:29:38;;;;;;;;;;;;;;;;;;4976908;28;20053;-73
2022/08/06 04:32:28;;;;;;;5.38;2.30;;;;;;;;;;5008505;28;20008;-73
2022/08/06 04:35:04;;;;;;;3.75;2.50;;;;;;;;;;5008402;28;20537;-73
2022/08/06 04:37:55;;;;;;;4.07;2.28;;;;;;;;;;5007797;28;20049;-73
2022/08/06 04:40:29;;;;;;;3.70;2.30;;;;;;;;;;5008275;28;20061;-73
2022/08/06 04:43:10;;;;;;;3.55;2.17;;;;;;;;;;5007800;28;20038;-73
2022/08/06 04:45:42;;;;;;;3.90;2.72;;;;;;;;;;5008293;28;20069;-73
2022/08/06 04:48:34;;;;;;;5.68;2.13;;;;;;;;;;5007953;28;20052;-73
2022/08/06 04:51:08;;;;;;;5.05;2.20;;;;;;;;;;5007828;28;20057;-73
2022/08/06 04:53:58;;;;;;;4.60;2.13;;;;;;;;;;5007718;28;20049;-73
2022/08/06 04:56:27;;;;;;;5.15;2.25;;;;;;;;;;5007994;28;20413;-73
2022/08/06 04:59:10;;;;;;;4.63;2.80;;;;;;;;;;5007926;28;20052;-73
2022/08/06 05:01:42;;;;;;;5.15;2.28;;;;;;;;;;5008534;28;20060;-73
2022/08/06 05:04:30;;;;;;;3.38;2.00;;;;;;;;;;5007161;28;20057;-73
2022/08/06 05:07:21;;;;;;;4.93;2.10;;;;;;;;;;5007197;28;20053;-73
2022/08/06 05:09:51;;;;;;;5.28;2.35;;;;;;;;;;5006530;28;20046;-73
2022/08/06 05:12:35;;;;;;;4.63;2.10;;;;;;;;;;4991066;28;20038;-73
2022/08/06 05:15:14;;;;;;;3.47;2.10;;;;;;;;;;5006323;28;20497;-73
2022/08/06 05:17:56;;;;;;;2.72;2.00;;;;;;;;;;5007782;28;20057;-73
2022/08/06 05:20:32;;;;;;;3.25;2.33;;;;;;;;;;5005045;28;20060;-73
2022/08/06 05:23:24;;;;;;;3.53;1.92;;;;;;;;;;5007906;28;20413;-73
2022/08/06 05:25:59;;;;;;;4.80;2.08;;;;;;;;;;5007553;28;20837;-73
2022/08/06 05:28:31;;;;;;;6.40;1.63;;;;;;;;;;5007167;28;20541;-73
2022/08/06 05:31:01;;;;;;;5.70;2.10;;;;;;;;;;5007385;28;20045;-73
2022/08/06 05:33:36;;;;;;;2.28;1.80;;;;;;;;;;5007575;28;20053;-73
2022/08/06 05:36:11;;;;;;;3.08;1.70;;;;;;;;;;5006964;28;20049;-73
2022/08/06 05:38:47;;;;;;;3.85;2.13;;;;;;;;;;5007092;28;20041;-73
2022/08/06 05:41:30;;;;;;;4.72;2.08;;;;;;;;;;5007362;28;20046;-73
2022/08/06 05:44:05;;;;;;;6.18;2.17;;;;;;;;;;5007109;28;20050;-73
2022/08/06 05:46:41;;;;;;;2.95;2.00;;;;;;;;;;5007020;28;20046;-73
2022/08/06 05:49:39;;;;;;;2.45;1.65;;;;;;;;;;5007390;28;20505;-73
2022/08/06 05:52:57;;;;;;;3.08;1.73;;;;;;;;;;5006691;28;20046;-73
2022/08/06 05:55:47;;;;;;;2.75;1.95;;;;;;;;;;5000004;28;20064;-73
2022/08/06 05:58:29;;;;;;;2.05;1.73;;;;;;;;;;5006816;28;20053;-73
2022/08/06 06:01:03;;;;;;;2.90;1.50;;;;;;;;;;5007582;28;20077;-73
2022/08/06 06:03:43;;;;;;;3.40;1.83;;;;;;;;;;5006788;28;20054;-73
2022/08/06 06:06:18;;;;;;;5.85;1.98;;;;;;;;;;5006634;28;20057;-74
2022/08/06 06:08:49;;;;;;;3.58;1.80;;;;;;;;;;4988777;28;20046;-73
2022/08/06 06:11:28;;;;;;;6.80;1.95;;;;;;;;;;5007029;28;20048;-73
2022/08/06 06:14:41;;;;;;;3.03;1.70;;;;;;;;;;5006905;28;20432;-73
2022/08/06 06:17:11;;;;;;;2.90;1.80;;;;;;;;;;5008356;28;20053;-73
2022/08/06 06:19:55;;;;;;;5.07;1.65;;;;;;;;;;5007496;28;20042;-73
2022/08/06 06:22:35;;;;;;;3.80;1.85;;;;;;;;;;5009896;28;20041;-73
2022/08/06 06:25:14;;;;;;;2.67;1.70;;;;;;;;;;5010722;28;20050;-73
2022/08/06 06:27:58;;;;;;;2.60;1.73;;;;;;;;;;5009136;28;20424;-73
2022/08/06 06:30:43;;;;;;;2.92;1.58;;;;;;;;;;5010603;28;20054;-73
2022/08/06 06:33:37;;;;;;;2.65;1.70;;;;;;;;;;5010404;28;20401;-73
2022/08/06 06:36:29;;;;;;;4.45;1.60;;;;;;;;;;5010779;28;20045;-73
2022/08/06 06:39:08;;;;;;;3.42;1.45;;;;;;;;;;5011233;28;20046;-73
2022/08/06 06:41:43;;;;;;;4.93;1.67;;;;;;;;;;5010701;28;20053;-73
2022/08/06 06:44:23;;;;;;;4.05;1.60;;;;;;;;;;5008252;28;20504;-73
2022/08/06 06:47:25;;;;;;;4.63;1.33;;;;;;;;;;5010296;28;20046;-73
2022/08/06 06:50:01;;;;;;;;;;;;;;;;;;4993520;28;20050;-73
2022/08/06 06:52:38;;;;;;;6.18;1.80;;;;;;;;;;5010112;28;19925;-73
2022/08/06 06:55:11;;;;;;;;;;;;;;;;;;5011048;28;20493;-73
2022/08/06 06:57:56;;;;;;;5.68;1.65;;;;;;;;;;5010148;28;19925;-73
2022/08/06 07:00:27;;;;;;;2.80;1.40;;;;;;;;;;5010533;28;20060;-73
2022/08/06 07:03:18;;;;;;;2.30;1.40;;;;;;;;;;5008136;28;20053;-73
2022/08/06 07:05:51;;;;;;;4.97;1.70;;;;;;;;;;5010016;28;20042;-73
2022/08/06 07:08:50;;;;;;;7.20;1.70;;;;;;;;;;5009432;28;20046;-73
2022/08/06 07:11:25;;;;;;;3.55;1.85;;;;;;;;;;5010316;28;20061;-73
2022/08/06 07:14:08;;;;;;;3.17;1.60;;;;;;;;;;5009828;28;20053;-73
2022/08/06 07:16:40;;;;;;;2.47;1.67;;;;;;;;;;5010290;28;20045;-73
2022/08/06 07:19:20;;;;;;;1.95;1.52;;;;;;;;;;5009895;28;20069;-73
2022/08/06 07:21:51;;;;;;;3.42;1.63;;;;;;;;;;5009321;28;20041;-73
2022/08/06 07:24:23;;;;;;;6.65;1.80;;;;;;;;;;5009211;28;20520;-73
2022/08/06 07:27:14;;;;;;;3.97;1.85;;;;;;;;;;5009924;28;20064;-73
2022/08/06 07:29:53;;;;;;;2.83;2.05;;;;;;;;;;5009427;28;20505;-73
2022/08/06 07:32:29;;;;;;;2.92;1.92;;;;;;;;;;5009193;28;20050;-73
2022/08/06 07:35:03;;;;;;;2.70;1.63;;;;;;;;;;5009727;28;20520;-73
2022/08/06 07:38:02;;;;;;;3.05;1.80;;;;;;;;;;5010092;28;20052;-73
2022/08/06 07:40:38;;;;;;;9.25;2.25;;;;;;;;;;5009681;28;20053;-73
2022/08/06 07:43:34;;;;;;;4.80;1.67;;;;;;;;;;5009388;28;20060;-73
2022/08/06 07:46:07;;;;;;;3.75;1.73;;;;;;;;;;5009053;28;20052;-73
2022/08/06 07:48:43;;;;;;;4.05;1.70;;;;;;;;;;4991488;28;20050;-73
2022/08/06 07:51:27;;;;;;;2.95;1.63;;;;;;;;;;5009514;28;20046;-73
2022/08/06 07:54:07;;;;;;;9.57;2.10;;;;;;;;;;5009413;28;20046;-73
2022/08/06 07:56:41;;;;;;;9.68;1.90;;;;;;;;;;4992282;28;20053;-73
2022/08/06 07:59:30;;;;;;;6.28;1.75;;;;;;;;;;5009192;28;20046;-73
2022/08/06 08:02:04;;;;;;;4.30;1.80;;;;;;;;;;5009169;28;20068;-73
2022/08/06 08:07:25;;;;;;;4.88;1.88;;;;;;;;;;5009025;28;20057;-73
2022/08/06 08:10:17;;;;;;;3.40;1.80;;;;;;;;;;5008957;28;20058;-73
2022/08/06 08:12:57;;;;;;;9.70;1.73;;;;;;;;;;5009072;28;20496;-73
2022/08/06 08:15:32;;;;;;;3.40;1.80;;;;;;;;;;5009543;28;20053;-73
2022/08/06 08:18:11;;;;;;;3.97;1.73;;;;;;;;;;5008459;28;20038;-73
2022/08/06 08:20:43;;;;;;;8.20;2.03;;;;;;;;;;4991874;28;20050;-73
2022/08/06 08:23:21;;;;;;;3.00;1.80;;;;;;;;;;5009066;28;20485;-73
2022/08/06 08:26:03;;;;;;;4.18;1.98;;;;;;;;;;5008751;28;20086;-73
2022/08/06 08:28:33;;;;;;;4.20;1.92;;;;;;;;;;5008797;28;20046;-73
2022/08/06 08:31:05;;;;;;;10.30;2.65;;;;;;;;;;5008481;28;20408;-73
2022/08/06 08:33:53;;;;;;;3.53;1.80;;;;;;;;;;5008156;28;20504;-73
2022/08/06 08:36:23;;;;;;;5.65;1.63;;;;;;;;;;5008362;28;20050;-73
2022/08/06 08:38:58;;;;;;;6.78;1.90;;;;;;;;;;5008180;28;20061;-73
2022/08/06 08:41:39;;;;;;;7.65;2.08;;;;;;;;;;5008391;28;20060;-73
2022/08/06 08:44:27;;;;;;;3.55;1.90;;;;;;;;;;5007715;28;21165;-73
2022/08/06 08:47:00;;;;;;;4.35;1.60;;;;;;;;;;5007959;28;20042;-73
2022/08/06 08:49:43;;;;;;;3.22;1.65;;;;;;;;;;5008258;28;20045;-73
2022/08/06 08:52:23;;;;;;;2.38;1.75;;;;;;;;;;5007918;28;20065;-73
2022/08/06 08:54:58;;;;;;;3.78;1.40;;;;;;;;;;5008190;28;20045;-73
2022/08/06 08:57:30;;;;;;;5.47;2.13;;;;;;;;;;5007689;28;20046;-73
2022/08/06 09:00:23;;;;;;;9.00;2.10;;;;;;;;;;5008207;28;20050;-73
2022/08/06 09:02:56;;;;;;;4.97;2.08;;;;;;;;;;5006762;28;20065;-73
2022/08/06 09:05:27;;;;;;;2.50;1.65;;;;;;;;;;5007450;28;20524;-73
2022/08/06 09:08:03;;;;;;;;;;;;;;;;;;5008217;28;20046;-73
2022/08/06 09:10:33;;;;;;;3.22;2.00;;;;;;;;;;5007800;28;19925;-73
2022/08/06 09:13:07;;;;;;;3.20;1.70;;;;;;;;;;5007349;28;20053;-73
2022/08/06 09:15:56;;;;;;;4.65;1.95;;;;;;;;;;5007827;28;20057;-73
2022/08/06 09:18:28;;;;;;;5.72;1.73;;;;;;;;;;5007742;28;20690;-73
2022/08/06 09:21:01;;;;;;;5.30;1.85;;;;;;;;;;5007870;28;20060;-73
2022/08/06 09:23:39;;;;;;;5.20;2.30;;;;;;;;;;5007529;28;20054;-73
2022/08/06 09:26:26;;;;;;;3.42;1.73;;;;;;;;;;5007769;28;20064;-73
2022/08/06 09:29:22;;;;;;;3.10;1.90;;;;;;;;;;5007704;28;20050;-73
2022/08/06 09:32:04;;;;;;;4.18;2.17;;;;;;;;;;5006625;28;20054;-73
2022/08/06 09:34:43;;;;;;;4.55;2.40;;;;;;;;;;5006903;28;20045;-73
2022/08/06 09:37:28;;;;;;;7.60;2.20;;;;;;;;;;5007367;28;20045;-73
2022/08/06 09:40:19;;;;;;;4.65;1.73;;;;;;;;;;5007467;28;20042;-72
2022/08/06 09:42:50;;;;;;;2.25;1.63;;;;;;;;;;5006990;28;20041;-73
2022/08/06 09:45:23;;;;;;;2.95;1.92;;;;;;;;;;5006397;28;20053;-73
2022/08/06 09:48:11;;;;;;;3.05;2.10;;;;;;;;;;5007335;28;20054;-72
2022/08/06 09:50:50;;;;;;;2.75;1.63;;;;;;;;;;5006947;28;20516;-72
2022/08/06 09:53:22;;;;;;;3.80;1.63;;;;;;;;;;5007149;28;20057;-72
2022/08/06 09:55:56;;;;;;;4.63;1.55;;;;;;;;;;5006699;28;20048;-71
2022/08/06 09:58:27;;;;;;;2.70;1.83;;;;;;;;;;5006521;28;20038;-72
2022/08/06 10:01:12;;;;;;;4.03;1.80;;;;;;;;;;5006466;28;20050;-74
2022/08/06 10:03:53;;;;;;;7.35;2.20;;;;;;;;;;5006420;28;20050;-72
2022/08/06 10:06:52;;;;;;;4.00;1.95;;;;;;;;;;5006308;28;20416;-73
2022/08/06 10:09:23;;;;;;;3.08;1.90;;;;;;;;;;5006876;28;20044;-73
2022/08/06 10:12:21;;;;;;;6.85;2.10;;;;;;;;;;5004769;28;20033;-73
2022/08/06 10:14:54;;;;;;;2.40;1.42;;;;;;;;;;5007121;28;20401;-73
2022/08/06 10:17:25;;;;;;;4.53;2.10;;;;;;;;;;5006543;28;20084;-73
2022/08/06 10:20:17;;;;;;;6.10;2.17;;;;;;;;;;5006588;28;20057;-73
2022/08/06 10:22:54;;;;;;;7.60;2.33;;;;;;;;;;4988903;28;20057;-73
2022/08/06 10:25:30;;;;;;;3.58;2.22;;;;;;;;;;4989202;28;20540;-74
2022/08/06 10:28:14;;;;;;;8.60;2.13;;;;;;;;;;5006553;28;20056;-73
2022/08/06 10:30:45;;;;;;;3.60;2.10;;;;;;;;;;5007216;28;20042;-73
2022/08/06 10:33:16;;;;;;;4.43;2.20;;;;;;;;;;5011550;28;20046;-74
2022/08/06 10:36:06;;;;;;;5.80;2.42;;;;;;;;;;5012384;28;20420;-74
2022/08/06 10:38:40;;;;;;;7.05;2.58;;;;;;;;;;5006081;28;20053;-73
2022/08/06 10:41:21;;;;;;;7.85;5.22;;;;;;;;;;5004577;28;20056;-74
2022/08/06 10:44:12;;;;;;;7.45;3.75;;;;;;;;;;5005148;28;20045;-73
2022/08/06 10:46:44;;;;;;;5.47;3.92;;;;;;;;;;5004999;28;20042;-73
2022/08/06 10:49:17;;;;;;;7.20;4.15;;;;;;;;;;5006032;28;20053;-74
2022/08/06 10:52:07;;;;;;;5.78;3.38;;;;;;;;;;5005919;28;20505;-75
2022/08/06 10:54:39;;;;;;;10.73;3.13;;;;;;;;;;5006225;28;20050;-74
2022/08/06 10:57:20;;;;;;;4.35;2.60;;;;;;;;;;5005956;28;20042;-74
2022/08/06 11:00:06;;;;;;;4.63;2.55;;;;;;;;;;5006919;28;20488;-73
2022/08/06 11:02:48;;;;;;;5.50;2.28;;;;;;;;;;5006062;28;20057;-72
2022/08/06 11:05:29;;;;;;;6.15;2.30;;;;;;;;;;4989795;28;20047;-73
2022/08/06 11:08:54;;;;;;;5.68;1.95;;;;;;;;;;5007224;28;20042;-73
2022/08/06 11:11:36;;;;;;;3.22;1.65;;;;;;;;;;4989022;28;20054;-73
2022/08/06 11:14:11;;;;;;;2.47;1.40;;;;;;;;;;5009737;28;20073;-73
2022/08/06 11:16:57;;;;;;;2.30;1.20;;;;;;;;;;5009371;28;20046;-73
2022/08/06 11:19:46;;;;;;;4.03;1.50;;;;;;;;;;5009842;28;20042;-73
2022/08/06 11:22:38;;;;;;;2.30;1.13;;;;;;;;;;5009460;28;20041;-74
2022/08/06 11:25:47;;;;;;;4.38;1.38;;;;;;;;;;5009343;28;20053;-73
2022/08/06 11:28:20;;;;;;;6.15;2.20;;;;;;;;;;5008922;28;20495;-74
2022/08/06 11:30:53;;;;;;;4.85;1.60;;;;;;;;;;5010205;28;20046;-73
2022/08/06 11:33:35;;;;;;;1.90;1.20;;;;;;;;;;5008529;28;20045;-75
2022/08/06 11:36:12;;;;;;;3.13;1.30;;;;;;;;;;5009966;28;20056;-73
2022/08/06 11:38:47;;;;;;;3.30;1.10;;;;;;;;;;5009314;28;20413;-74
2022/08/06 11:41:25;;;;;;;3.30;1.10;;;;;;;;;;5009310;28;20045;-73
2022/08/06 11:44:18;;;;;;;2.53;1.02;;;;;;;;;;5008914;28;20061;-73
2022/08/06 11:47:12;;;;;;;3.28;1.05;;;;;;;;;;5009214;28;20042;-73
2022/08/06 11:49:48;;;;;;;3.05;1.13;;;;;;;;;;5008876;28;20048;-74
2022/08/06 11:52:38;;;;;;;5.75;1.20;;;;;;;;;;5008250;28;20054;-73
2022/08/06 11:55:14;;;;;;;8.13;1.20;;;;;;;;;;5009051;28;20049;-74
2022/08/06 11:58:18;;;;;;;3.05;1.10;;;;;;;;;;4992400;28;20057;-73
2022/08/06 12:01:02;;;;;;;4.57;1.27;;;;;;;;;;5009341;28;20054;-73
2022/08/06 12:03:52;;;;;;;3.00;1.10;;;;;;;;;;5008535;28;20072;-73
2022/08/06 12:06:23;;;;;;;4.00;1.50;;;;;;;;;;5009947;28;20046;-73
2022/08/06 12:09:07;;;;;;;3.70;1.40;;;;;;;;;;5009133;28;20530;-75
2022/08/06 12:11:42;;;;;;;4.78;1.20;;;;;;;;;;5008792;28;20053;-73
2022/08/06 12:14:41;;;;;;;3.67;1.40;;;;;;;;;;5009485;28;20041;-73
2022/08/06 12:17:19;;;;;;;5.63;1.23;;;;;;;;;;4992171;28;20061;-73
2022/08/06 12:19:52;;;;;;;2.88;0.82;;;;;;;;;;5006570;28;20508;-73
2022/08/06 12:22:33;;;;;;;4.18;1.42;;;;;;;;;;5006218;28;20068;-73
2022/08/06 12:25:08;;;;;;;3.80;1.00;;;;;;;;;;5007781;28;20038;-73
2022/08/06 12:27:43;;;;;;;2.78;1.00;;;;;;;;;;5007718;28;20049;-72
2022/08/06 12:30:22;;;;;;;4.30;1.13;;;;;;;;;;5007808;28;20053;-73
2022/08/06 12:33:08;;;;;;;3.55;1.20;;;;;;;;;;5007407;28;20042;-73
2022/08/06 12:35:56;;;;;;;4.50;1.35;;;;;;;;;;5007726;28;20049;-73
2022/08/06 12:38:30;;;;;;;4.40;1.60;;;;;;;;;;5007258;28;20061;-73
2022/08/06 12:41:06;;;;;;;4.13;1.08;;;;;;;;;;5007436;28;20053;-73
2022/08/06 12:43:45;;;;;;;3.65;1.13;;;;;;;;;;4989266;28;20058;-74
2022/08/06 12:46:25;;;;;;;3.60;1.10;;;;;;;;;;5008007;28;20163;-73
2022/08/06 12:49:00;;;;;;;3.13;1.48;;;;;;;;;;5008121;28;20060;-73
2022/08/06 12:51:31;;;;;;;6.20;1.52;;;;;;;;;;5008178;28;20045;-75
2022/08/06 12:54:04;;;;;;;1.80;1.00;;;;;;;;;;4989920;28;20145;-73
2022/08/06 12:56:38;;;;;;;5.72;1.25;;;;;;;;;;5007014;28;20517;-73
2022/08/06 12:59:11;;;;;;;2.47;0.90;;;;;;;;;;5008069;28;20073;-73
2022/08/06 13:01:54;;;;;;;5.05;1.10;;;;;;;;;;5008530;28;20081;-73
2022/08/06 13:04:48;;;;;;;2.47;1.08;;;;;;;;;;5007851;28;20414;-74
2022/08/06 13:07:19;;;;;;;3.58;0.90;;;;;;;;;;5007571;28;20125;-74
2022/08/06 13:09:51;;;;;;;7.97;1.40;;;;;;;;;;5006939;28;20038;-73
2022/08/06 13:12:41;;;;;;;2.97;1.00;;;;;;;;;;5007389;28;20510;-73
2022/08/06 13:15:33;;;;;;;1.33;0.80;;;;;;;;;;5007073;28;20412;-73
2022/08/06 13:18:17;;;;;;;2.90;1.02;;;;;;;;;;5007436;28;20054;-73
2022/08/06 13:21:37;;;;;;;2.22;1.20;;;;;;;;;;5007169;28;20072;-73
2022/08/06 13:24:27;;;;;;;3.28;1.10;;;;;;;;;;5004217;28;20411;-74
2022/08/06 13:26:59;;;;;;;5.55;1.20;;;;;;;;;;4990326;28;20045;-74
2022/08/06 13:29:34;;;;;;;6.55;1.60;;;;;;;;;;5007916;28;20049;-73
2022/08/06 13:32:26;;;;;;;1.88;0.90;;;;;;;;;;5006372;28;20054;-73
2022/08/06 13:35:10;;;;;;;4.53;0.90;;;;;;;;;;5006789;28;20050;-73
2022/08/06 13:37:48;;;;;;;3.53;1.17;;;;;;;;;;5007062;28;20053;-74
2022/08/06 13:40:49;;;;;;;3.75;1.00;;;;;;;;;;4975733;28;20115;-74
2022/08/06 13:43:43;;;;;;;4.97;1.15;;;;;;;;;;5005972;28;20068;-72
2022/08/06 13:46:27;;;;;;;1.30;0.82;;;;;;;;;;5008332;28;20133;-73
2022/08/06 13:49:01;;;;;;;3.90;1.13;;;;;;;;;;5007792;28;20042;-74
2022/08/06 13:51:44;;;;;;;5.00;1.45;;;;;;;;;;5008087;28;20806;-73
2022/08/06 13:54:27;;;;;;;4.05;0.95;;;;;;;;;;5007745;28;20492;-74
2022/08/06 13:57:05;;;;;;;2.95;1.02;;;;;;;;;;5007105;28;20068;-75
2022/08/06 13:59:44;;;;;;;2.80;1.65;;;;;;;;;;5006882;28;20061;-73
2022/08/06 14:02:17;;;;;;;4.15;1.20;;;;;;;;;;5008770;28;20057;-74
2022/08/06 14:04:49;;;;;;;2.97;1.35;;;;;;;;;;5007983;28;20412;-74
2022/08/06 14:07:18;;;;;;;3.65;1.13;;;;;;;;;;5007666;28;20493;-73
2022/08/06 14:09:49;;;;;;;3.35;1.30;;;;;;;;;;4990930;28;20054;-72
2022/08/06 14:12:39;;;;;;;5.32;1.25;;;;;;;;;;5006727;28;20528;-73
2022/08/06 14:15:13;;;;;;;1.40;0.93;;;;;;;;;;5006700;28;20076;-73
2022/08/06 14:17:53;;;;;;;2.90;0.93;;;;;;;;;;5007430;28;20054;-73
2022/08/06 14:20:27;;;;;;;2.35;1.20;;;;;;;;;;5005367;28;20057;-73
2022/08/06 14:22:59;;;;;;;1.95;0.95;;;;;;;;;;5006664;28;20053;-73
2022/08/06 14:25:34;;;;;;;6.18;1.33;;;;;;;;;;5004994;28;20058;-72
2022/08/06 14:28:25;;;;;;;2.25;0.93;;;;;;;;;;5007370;28;20053;-73
2022/08/06 14:30:55;;;;;;;4.13;1.10;;;;;;;;;;5007208;28;20042;-74
2022/08/06 14:33:31;;;;;;;2.00;1.45;;;;;;;;;;5005260;28;20046;-75
2022/08/06 14:36:15;;;;;;;5.35;0.93;;;;;;;;;;4991265;28;20046;-73
2022/08/06 14:38:47;;;;;;;3.45;0.93;;;;;;;;;;5006739;28;20057;-73
2022/08/06 14:47:08;;;;;;;2.90;1.13;;;;;;;;;;5019805;28;20069;-74
2022/08/06 14:49:59;;;;;;;2.95;0.98;;;;;;;;;;4982413;28;20386;-75
2022/08/06 14:52:33;;;;;;;2.13;1.00;;;;;;;;;;5011537;28;20034;-72
2022/08/06 14:55:03;;;;;;;1.92;0.93;;;;;;;;;;5010418;28;20053;-75
2022/08/06 14:57:36;;;;;;;2.60;0.93;;;;;;;;;;5009789;28;20538;-73
2022/08/06 15:00:27;;;;;;;3.45;1.20;;;;;;;;;;5010623;28;20080;-73
2022/08/06 15:03:07;;;;;;;2.25;1.10;;;;;;;;;;5010237;28;20046;-74
2022/08/06 15:05:44;;;;;;;2.58;0.95;;;;;;;;;;5010094;28;20045;-74
2022/08/06 15:08:36;;;;;;;4.63;1.23;;;;;;;;;;5010321;28;20041;-73
2022/08/06 15:11:17;;;;;;;5.40;1.30;;;;;;;;;;5010327;28;20481;-73
2022/08/06 15:13:50;;;;;;;2.45;0.85;;;;;;;;;;5010940;28;20061;-73
2022/08/06 15:16:22;;;;;;;2.00;0.80;;;;;;;;;;4992006;28;20054;-74
2022/08/06 15:19:13;;;;;;;1.58;0.80;;;;;;;;;;5010097;28;20050;-72
2022/08/06 15:21:58;;;;;;;2.90;0.82;;;;;;;;;;4994409;28;20054;-74
2022/08/06 15:24:34;;;;;;;6.63;1.60;;;;;;;;;;5009049;28;20795;-74
2022/08/06 15:27:11;;;;;;;2.92;0.82;;;;;;;;;;4992271;28;20068;-72
2022/08/06 15:30:07;;;;;;;1.77;0.90;;;;;;;;;;5010301;28;20520;-70
2022/08/06 15:32:47;;;;;;;2.90;1.00;;;;;;;;;;5007702;28;20069;-75
2022/08/06 15:35:31;;;;;;;4.28;1.00;;;;;;;;;;4995118;28;20060;-72
2022/08/06 15:38:28;;;;;;;3.53;0.95;;;;;;;;;;5009640;28;20058;-76
2022/08/06 15:41:12;;;;;;;3.45;1.02;;;;;;;;;;5006176;28;20093;-72
2022/08/06 15:43:43;;;;;;;3.08;0.90;;;;;;;;;;5010181;28;20046;-72
2022/08/06 15:46:27;;;;;;;3.42;1.02;;;;;;;;;;5009065;28;20041;-75
2022/08/06 15:49:05;;;;;;;2.63;1.20;;;;;;;;;;5009652;28;20054;-73
2022/08/06 15:51:42;;;;;;;5.22;1.10;;;;;;;;;;4972587;28;20053;-73
2022/08/06 15:54:29;;;;;;;2.75;0.95;;;;;;;;;;5004576;28;20057;-73
2022/08/06 15:57:05;;;;;;;2.95;1.00;;;;;;;;;;5008116;28;20336;-73
2022/08/06 15:59:45;;;;;;;2.45;1.10;;;;;;;;;;5008550;28;20057;-73
2022/08/06 16:02:20;;;;;;;4.65;1.10;;;;;;;;;;5009299;28;20171;-75
2022/08/06 16:04:59;;;;;;;6.38;1.30;;;;;;;;;;5008505;28;20057;-73
2022/08/06 16:07:30;;;;;;;1.08;0.82;;;;;;;;;;5008439;28;20531;-72
2022/08/06 16:10:18;;;;;;;2.53;0.90;;;;;;;;;;5009015;28;20054;-73
2022/08/06 16:13:02;;;;;;;2.83;0.98;;;;;;;;;;5008138;28;20050;-74
2022/08/06 16:15:33;;;;;;;6.10;1.67;;;;;;;;;;5008820;28;20431;-73